Time;durP1;ratioP1;P1;durP2;ratioP2;P2;SDS_P1;SDS_P2;PMS_P1;PMS_P2;Temp;Humidity;BMP_temperature;BMP_pressure;BME280_temperature;BME280_humidity;BME280_pressure;Samples;Min_cycle;Max_cycle;Signal;HPM_P1;HPM_P2
2023/08/25 00:00:24;;;;;;;7.63;4.47;;;;;;;;;;5053662;28;20837;-57
2023/08/25 00:02:51;;;;;;;10.83;4.00;;;;;;;;;;5054302;28;20950;-56
2023/08/25 00:05:20;;;;;;;5.37;3.70;;;;;;;;;;5053910;28;20528;-56
2023/08/25 00:07:47;;;;;;;7.40;3.17;;;;;;;;;;5053024;28;21000;-58
2023/08/25 00:10:15;;;;;;;5.57;2.90;;;;;;;;;;5053493;28;20568;-57
2023/08/25 00:12:42;;;;;;;5.90;3.03;;;;;;;;;;5053662;28;20530;-57
2023/08/25 00:15:10;;;;;;;4.10;2.60;;;;;;;;;;5053407;28;21021;-58
2023/08/25 00:17:38;;;;;;;6.40;3.37;;;;;;;;;;5053877;28;20441;-57
2023/08/25 00:20:08;;;;;;;5.13;3.17;;;;;;;;;;5053362;28;20540;-58
2023/08/25 00:22:37;;;;;;;9.77;4.20;;;;;;;;;;5052508;28;20445;-57
2023/08/25 00:25:04;;;;;;;5.20;3.33;;;;;;;;;;5053751;28;20437;-56
2023/08/25 00:27:31;;;;;;;5.87;3.70;;;;;;;;;;5053810;28;20522;-57
2023/08/25 00:29:59;;;;;;;9.10;4.53;;;;;;;;;;5053114;28;20520;-57
2023/08/25 00:32:26;;;;;;;6.93;3.90;;;;;;;;;;5035647;28;20470;-56
2023/08/25 00:34:53;;;;;;;6.00;3.60;;;;;;;;;;5053191;28;20829;-57
2023/08/25 00:37:20;;;;;;;10.87;3.90;;;;;;;;;;5052813;28;20870;-56
2023/08/25 00:39:49;;;;;;;6.83;3.80;;;;;;;;;;5053334;28;20489;-56
2023/08/25 00:42:16;;;;;;;9.37;3.57;;;;;;;;;;5053621;28;20627;-58
2023/08/25 00:44:43;;;;;;;7.97;4.17;;;;;;;;;;5053582;28;20449;-56
2023/08/25 00:47:11;;;;;;;7.00;3.90;;;;;;;;;;5053768;28;20507;-56
2023/08/25 00:49:39;;;;;;;8.50;3.83;;;;;;;;;;5052866;28;20496;-56
2023/08/25 00:52:07;;;;;;;6.33;4.40;;;;;;;;;;5053285;28;20487;-57
2023/08/25 00:54:35;;;;;;;9.17;3.70;;;;;;;;;;5053231;28;20445;-58
2023/08/25 00:57:04;;;;;;;7.80;3.50;;;;;;;;;;5053171;28;20552;-56
2023/08/25 00:59:31;;;;;;;6.80;3.50;;;;;;;;;;5052632;28;20885;-57
2023/08/25 01:01:59;;;;;;;10.43;3.50;;;;;;;;;;5052703;28;20816;-57
2023/08/25 01:04:26;;;;;;;6.80;4.30;;;;;;;;;;5052799;28;20616;-58
2023/08/25 01:06:54;;;;;;;6.83;4.37;;;;;;;;;;5037280;28;20475;-57
2023/08/25 01:09:22;;;;;;;7.70;3.40;;;;;;;;;;5052480;28;20871;-58
2023/08/25 01:11:53;;;;;;;7.80;3.77;;;;;;;;;;5052471;28;21139;-57
2023/08/25 01:14:26;;;;;;;6.90;3.57;;;;;;;;;;5052589;28;20437;-56
2023/08/25 01:16:55;;;;;;;8.67;4.20;;;;;;;;;;5052387;28;20445;-57
2023/08/25 01:19:37;;;;;;;9.13;4.10;;;;;;;;;;5052735;28;20497;-57
2023/08/25 01:22:07;;;;;;;12.10;4.10;;;;;;;;;;5051301;28;20531;-57
2023/08/25 01:24:37;;;;;;;7.50;3.90;;;;;;;;;;5053294;28;20496;-56
2023/08/25 01:27:05;;;;;;;6.03;3.50;;;;;;;;;;5041701;28;20473;-58
2023/08/25 01:29:33;;;;;;;10.23;3.73;;;;;;;;;;5032507;28;20496;-57
2023/08/25 01:32:00;;;;;;;9.60;4.07;;;;;;;;;;5051084;28;20481;-57
2023/08/25 01:34:27;;;;;;;8.50;3.20;;;;;;;;;;5052635;28;20441;-57
2023/08/25 01:36:59;;;;;;;6.07;3.23;;;;;;;;;;5052234;28;20520;-56
2023/08/25 01:39:28;;;;;;;8.10;4.33;;;;;;;;;;5052016;28;20493;-57
2023/08/25 01:41:57;;;;;;;7.67;4.00;;;;;;;;;;5052432;28;20476;-57
2023/08/25 01:44:27;;;;;;;11.40;3.97;;;;;;;;;;5051889;28;20520;-57
2023/08/25 01:47:00;;;;;;;9.43;3.70;;;;;;;;;;5051994;28;20954;-57
2023/08/25 01:49:28;;;;;;;12.10;4.10;;;;;;;;;;5052297;28;20699;-57
2023/08/25 01:51:55;;;;;;;6.87;3.53;;;;;;;;;;5050695;28;20636;-56
2023/08/25 01:54:22;;;;;;;5.90;3.47;;;;;;;;;;5051808;28;20858;-57
2023/08/25 01:56:49;;;;;;;5.63;3.80;;;;;;;;;;5051888;28;20442;-57
2023/08/25 01:59:17;;;;;;;10.50;3.83;;;;;;;;;;5051772;28;20483;-57
2023/08/25 02:01:45;;;;;;;6.67;4.23;;;;;;;;;;5050787;28;20570;-56
2023/08/25 02:04:13;;;;;;;6.53;3.70;;;;;;;;;;5051753;28;20980;-57
2023/08/25 02:06:40;;;;;;;11.63;4.33;;;;;;;;;;5051663;28;20449;-57
2023/08/25 02:09:08;;;;;;;7.60;3.97;;;;;;;;;;5051876;28;20474;-57
2023/08/25 02:11:35;;;;;;;9.63;4.17;;;;;;;;;;5051429;28;20845;-56
2023/08/25 02:14:02;;;;;;;10.60;3.90;;;;;;;;;;5051267;28;20441;-58
2023/08/25 02:16:29;;;;;;;7.03;4.00;;;;;;;;;;5051871;28;20429;-58
2023/08/25 02:18:58;;;;;;;5.10;3.23;;;;;;;;;;5051038;28;20515;-57
2023/08/25 02:21:25;;;;;;;8.47;3.90;;;;;;;;;;5050036;28;20480;-57
2023/08/25 02:23:52;;;;;;;7.80;4.20;;;;;;;;;;5052042;28;20507;-56
2023/08/25 02:26:20;;;;;;;5.87;3.33;;;;;;;;;;5051539;28;20854;-56
2023/08/25 02:28:47;;;;;;;11.10;4.57;;;;;;;;;;5051354;28;20531;-58
2023/08/25 02:31:14;;;;;;;7.60;4.23;;;;;;;;;;5050892;28;20638;-56
2023/08/25 02:33:41;;;;;;;5.87;3.30;;;;;;;;;;5051155;28;20441;-57
2023/08/25 02:36:10;;;;;;;6.83;3.30;;;;;;;;;;5051348;28;20515;-56
2023/08/25 02:38:37;;;;;;;6.70;3.43;;;;;;;;;;5051189;28;20441;-56
2023/08/25 02:41:05;;;;;;;11.03;4.30;;;;;;;;;;5083563;23;20542;-85
2023/08/25 02:43:33;;;;;;;7.50;3.80;;;;;;;;;;5075515;28;20448;-85
2023/08/25 02:46:00;;;;;;;6.10;3.60;;;;;;;;;;5063389;28;20483;-85
2023/08/25 02:48:28;;;;;;;14.73;4.07;;;;;;;;;;5063320;28;20472;-85
2023/08/25 02:50:55;;;;;;;12.10;4.20;;;;;;;;;;5072838;28;20480;-85
2023/08/25 02:53:24;;;;;;;8.30;3.97;;;;;;;;;;5075341;23;20964;-56
2023/08/25 02:55:51;;;;;;;6.90;3.80;;;;;;;;;;5051059;28;20473;-57
2023/08/25 02:58:18;;;;;;;6.00;4.20;;;;;;;;;;5050576;28;20878;-57
2023/08/25 03:00:45;;;;;;;7.00;3.90;;;;;;;;;;5046708;28;20450;-57
2023/08/25 03:03:12;;;;;;;5.73;3.63;;;;;;;;;;5041103;28;20441;-58
2023/08/25 03:05:40;;;;;;;6.97;4.37;;;;;;;;;;5051662;28;20429;-56
2023/08/25 03:08:11;;;;;;;9.03;4.43;;;;;;;;;;5050894;28;20445;-57
2023/08/25 03:10:40;;;;;;;9.57;3.60;;;;;;;;;;5047777;28;20547;-57
2023/08/25 03:13:07;;;;;;;5.87;3.10;;;;;;;;;;5034387;28;20968;-56
2023/08/25 03:15:34;;;;;;;11.90;3.90;;;;;;;;;;5035032;28;20441;-57
2023/08/25 03:18:01;;;;;;;5.73;4.00;;;;;;;;;;5050847;28;20441;-57
2023/08/25 03:20:29;;;;;;;8.43;4.10;;;;;;;;;;5033481;28;21072;-56
2023/08/25 03:22:57;;;;;;;10.40;4.20;;;;;;;;;;5044780;28;20509;-58
2023/08/25 03:25:24;;;;;;;7.13;3.90;;;;;;;;;;5030877;28;21028;-56
2023/08/25 03:27:53;;;;;;;7.87;4.60;;;;;;;;;;5030633;28;20462;-56
2023/08/25 03:30:21;;;;;;;6.73;3.37;;;;;;;;;;5029772;28;21036;-57
2023/08/25 03:32:48;;;;;;;9.13;4.27;;;;;;;;;;5037501;28;20450;-57
2023/08/25 03:35:16;;;;;;;7.03;3.63;;;;;;;;;;5043042;28;20803;-57
2023/08/25 03:37:43;;;;;;;9.20;3.97;;;;;;;;;;5050834;28;20878;-57
2023/08/25 03:40:11;;;;;;;7.27;3.80;;;;;;;;;;5048392;28;20556;-58
2023/08/25 03:42:38;;;;;;;8.63;3.60;;;;;;;;;;5040686;28;20529;-57
2023/08/25 03:45:08;;;;;;;7.33;3.80;;;;;;;;;;5032950;28;20533;-57
2023/08/25 03:47:35;;;;;;;6.53;4.20;;;;;;;;;;5030299;28;20438;-57
2023/08/25 03:50:02;;;;;;;9.43;4.33;;;;;;;;;;5037988;28;20783;-56
2023/08/25 03:52:29;;;;;;;10.83;4.00;;;;;;;;;;5041728;28;20531;-56
2023/08/25 03:54:57;;;;;;;6.77;3.80;;;;;;;;;;5030107;28;20516;-56
2023/08/25 03:57:24;;;;;;;6.53;3.90;;;;;;;;;;5029882;28;20478;-56
2023/08/25 03:59:51;;;;;;;7.20;4.30;;;;;;;;;;5029965;28;20494;-56
2023/08/25 04:02:20;;;;;;;8.63;3.07;;;;;;;;;;5035611;28;21066;-56
2023/08/25 04:04:47;;;;;;;7.13;3.40;;;;;;;;;;5048453;28;20869;-56
2023/08/25 04:07:14;;;;;;;9.27;3.77;;;;;;;;;;5047780;28;20473;-56
2023/08/25 04:09:42;;;;;;;9.03;3.53;;;;;;;;;;5030220;28;20987;-57
2023/08/25 04:12:09;;;;;;;11.93;4.40;;;;;;;;;;5043857;28;20815;-57
2023/08/25 04:14:36;;;;;;;9.57;3.80;;;;;;;;;;5032539;28;20504;-56
2023/08/25 04:17:04;;;;;;;13.10;3.90;;;;;;;;;;5038431;28;20560;-57
2023/08/25 04:19:32;;;;;;;7.70;3.53;;;;;;;;;;5034583;28;20450;-56
2023/08/25 04:22:00;;;;;;;4.73;2.90;;;;;;;;;;5046478;28;20798;-56
2023/08/25 04:24:27;;;;;;;7.40;3.07;;;;;;;;;;5025968;28;20451;-56
2023/08/25 04:26:54;;;;;;;6.93;3.50;;;;;;;;;;5010326;28;20534;-57
2023/08/25 04:29:22;;;;;;;7.03;3.60;;;;;;;;;;5016519;28;20450;-56
2023/08/25 04:31:49;;;;;;;8.07;3.47;;;;;;;;;;5030019;28;20884;-56
2023/08/25 04:34:16;;;;;;;7.53;3.53;;;;;;;;;;5044147;28;20480;-57
2023/08/25 04:36:45;;;;;;;7.10;3.40;;;;;;;;;;5041058;28;20500;-56
2023/08/25 04:39:13;;;;;;;6.27;3.30;;;;;;;;;;5034630;28;20755;-56
2023/08/25 04:41:41;;;;;;;5.63;3.40;;;;;;;;;;5050153;28;20822;-56
2023/08/25 04:44:08;;;;;;;7.43;3.60;;;;;;;;;;5048940;28;20441;-57
2023/08/25 04:46:35;;;;;;;4.60;3.07;;;;;;;;;;5036532;28;20529;-57
2023/08/25 04:49:03;;;;;;;8.40;3.07;;;;;;;;;;5033737;28;20525;-57
2023/08/25 04:51:30;;;;;;;7.03;2.70;;;;;;;;;;5032725;28;20562;-56
2023/08/25 04:53:59;;;;;;;4.80;3.10;;;;;;;;;;5045462;28;20532;-57
2023/08/25 04:56:26;;;;;;;9.53;3.37;;;;;;;;;;5033521;28;20434;-57
2023/08/25 04:58:53;;;;;;;5.90;3.20;;;;;;;;;;5032724;28;20525;-57
2023/08/25 05:01:20;;;;;;;8.10;3.23;;;;;;;;;;5031747;28;20529;-57
2023/08/25 05:03:48;;;;;;;6.30;3.93;;;;;;;;;;5029887;28;20521;-57
2023/08/25 05:06:15;;;;;;;7.30;4.20;;;;;;;;;;5032913;28;20438;-57
2023/08/25 05:08:44;;;;;;;6.20;3.00;;;;;;;;;;5034352;28;20508;-57
2023/08/25 05:11:13;;;;;;;8.83;3.00;;;;;;;;;;5033520;28;20536;-56
2023/08/25 05:13:40;;;;;;;4.97;2.97;;;;;;;;;;5033441;28;20454;-57
2023/08/25 05:16:09;;;;;;;6.73;3.30;;;;;;;;;;5035114;28;20470;-57
2023/08/25 05:18:36;;;;;;;6.13;2.90;;;;;;;;;;5051036;28;20473;-57
2023/08/25 05:21:03;;;;;;;5.13;2.90;;;;;;;;;;5041827;28;20552;-57
2023/08/25 05:23:30;;;;;;;4.23;2.20;;;;;;;;;;5040862;28;20442;-58
2023/08/25 05:25:58;;;;;;;5.83;2.97;;;;;;;;;;5014914;28;20451;-56
2023/08/25 05:28:26;;;;;;;3.67;2.63;;;;;;;;;;5031189;28;20554;-56
2023/08/25 05:30:54;;;;;;;4.13;2.70;;;;;;;;;;5033164;28;20553;-56
2023/08/25 05:33:21;;;;;;;5.33;3.10;;;;;;;;;;5031862;28;20972;-57
2023/08/25 05:35:48;;;;;;;8.00;3.10;;;;;;;;;;5034701;28;20481;-57
2023/08/25 05:38:15;;;;;;;4.50;2.97;;;;;;;;;;5028915;28;20525;-56
2023/08/25 05:40:43;;;;;;;7.60;3.70;;;;;;;;;;5030562;28;21036;-56
2023/08/25 05:43:10;;;;;;;6.10;3.67;;;;;;;;;;5033639;28;20496;-57
2023/08/25 05:45:38;;;;;;;6.00;2.80;;;;;;;;;;5028996;28;20470;-57
2023/08/25 05:48:06;;;;;;;5.70;3.00;;;;;;;;;;5030275;28;20446;-57
2023/08/25 05:50:35;;;;;;;5.50;2.63;;;;;;;;;;5033373;28;20557;-57
2023/08/25 05:53:03;;;;;;;7.90;2.90;;;;;;;;;;5042226;28;20477;-57
2023/08/25 05:55:30;;;;;;;8.50;2.90;;;;;;;;;;5033916;28;20482;-56
2023/08/25 05:57:57;;;;;;;6.00;2.90;;;;;;;;;;5032122;28;20598;-57
2023/08/25 06:00:25;;;;;;;8.30;3.10;;;;;;;;;;5031824;28;20454;-56
2023/08/25 06:02:53;;;;;;;8.33;3.20;;;;;;;;;;5033283;28;20442;-57
2023/08/25 06:05:21;;;;;;;4.97;2.50;;;;;;;;;;5052106;28;20448;-56
2023/08/25 06:07:48;;;;;;;5.07;2.70;;;;;;;;;;5049847;28;20789;-56
2023/08/25 06:10:15;;;;;;;8.43;3.00;;;;;;;;;;5039558;28;21009;-57
2023/08/25 06:12:42;;;;;;;5.50;2.60;;;;;;;;;;5033008;28;20502;-56
2023/08/25 06:15:10;;;;;;;3.80;2.73;;;;;;;;;;5024279;28;20976;-56
2023/08/25 06:17:38;;;;;;;7.53;2.67;;;;;;;;;;5010945;28;20490;-57
2023/08/25 06:20:07;;;;;;;5.07;2.73;;;;;;;;;;5031519;28;20461;-57
2023/08/25 06:22:34;;;;;;;8.77;3.50;;;;;;;;;;5045641;28;20433;-56
2023/08/25 06:25:02;;;;;;;7.30;3.07;;;;;;;;;;5033520;28;20529;-58
2023/08/25 06:27:29;;;;;;;5.43;2.83;;;;;;;;;;5011541;28;20776;-56
2023/08/25 06:29:56;;;;;;;6.20;2.93;;;;;;;;;;5021357;28;20494;-57
2023/08/25 06:32:23;;;;;;;4.47;2.40;;;;;;;;;;5031987;28;20532;-57
2023/08/25 06:34:53;;;;;;;7.53;3.30;;;;;;;;;;5044956;28;20525;-56
2023/08/25 06:37:22;;;;;;;7.40;2.77;;;;;;;;;;5035398;28;20806;-57
2023/08/25 06:39:49;;;;;;;5.33;2.90;;;;;;;;;;5046286;28;20569;-56
2023/08/25 06:42:17;;;;;;;5.03;2.00;;;;;;;;;;5043652;28;20517;-57
2023/08/25 06:44:45;;;;;;;4.80;2.67;;;;;;;;;;5032484;28;20473;-57
2023/08/25 06:47:12;;;;;;;4.93;2.80;;;;;;;;;;5035383;28;20465;-56
2023/08/25 06:49:39;;;;;;;4.53;2.40;;;;;;;;;;5043230;28;20465;-58
2023/08/25 06:52:07;;;;;;;5.70;2.40;;;;;;;;;;5030992;28;20569;-57
2023/08/25 06:54:35;;;;;;;3.97;2.33;;;;;;;;;;5030249;28;20470;-56
2023/08/25 06:57:02;;;;;;;4.37;2.40;;;;;;;;;;5031307;28;20530;-57
2023/08/25 06:59:30;;;;;;;3.50;2.03;;;;;;;;;;5030752;28;20442;-56
2023/08/25 07:01:57;;;;;;;5.10;2.47;;;;;;;;;;5030943;28;20473;-56
2023/08/25 07:04:25;;;;;;;4.47;2.57;;;;;;;;;;5030693;28;20830;-56
2023/08/25 07:06:52;;;;;;;6.33;2.70;;;;;;;;;;5032159;28;20450;-57
2023/08/25 07:09:19;;;;;;;10.50;3.17;;;;;;;;;;5035739;28;20502;-56
2023/08/25 07:11:48;;;;;;;4.90;2.63;;;;;;;;;;5042292;28;21014;-56
2023/08/25 07:14:15;;;;;;;3.73;1.70;;;;;;;;;;5024444;28;20493;-56
2023/08/25 07:16:42;;;;;;;5.03;2.67;;;;;;;;;;5027980;28;20508;-57
2023/08/25 07:19:10;;;;;;;5.03;2.37;;;;;;;;;;5030602;28;20438;-57
2023/08/25 07:21:37;;;;;;;5.37;1.90;;;;;;;;;;5035726;28;20465;-57
2023/08/25 07:24:05;;;;;;;4.07;2.50;;;;;;;;;;5030960;28;20464;-57
2023/08/25 07:26:32;;;;;;;4.50;2.30;;;;;;;;;;5031184;28;20446;-58
2023/08/25 07:29:01;;;;;;;5.10;2.63;;;;;;;;;;5046935;28;20762;-57
2023/08/25 07:31:28;;;;;;;5.10;2.53;;;;;;;;;;5050608;28;20552;-57
2023/08/25 07:33:56;;;;;;;3.93;2.20;;;;;;;;;;5050824;28;20823;-56
2023/08/25 07:36:23;;;;;;;5.40;2.40;;;;;;;;;;5050551;28;20473;-58
2023/08/25 07:38:50;;;;;;;5.03;2.73;;;;;;;;;;5049772;28;20465;-56
2023/08/25 07:41:21;;;;;;;3.97;2.03;;;;;;;;;;5050349;28;21045;-57
2023/08/25 07:43:48;;;;;;;5.83;2.60;;;;;;;;;;5050676;28;20442;-57
2023/08/25 07:46:17;;;;;;;3.70;2.10;;;;;;;;;;5050643;28;20441;-57
2023/08/25 07:48:45;;;;;;;4.73;2.30;;;;;;;;;;5050885;28;20465;-57
2023/08/25 07:51:12;;;;;;;3.73;1.87;;;;;;;;;;5050338;28;20955;-57
2023/08/25 07:53:39;;;;;;;3.60;2.40;;;;;;;;;;5049264;28;20530;-58
2023/08/25 07:56:06;;;;;;;3.80;2.10;;;;;;;;;;5042423;28;20465;-58
2023/08/25 07:58:34;;;;;;;7.50;2.40;;;;;;;;;;5029635;28;20531;-58
2023/08/25 08:01:02;;;;;;;5.10;2.27;;;;;;;;;;5041793;28;20868;-58
2023/08/25 08:03:31;;;;;;;7.50;2.77;;;;;;;;;;5033438;28;20525;-58
2023/08/25 08:05:58;;;;;;;5.73;2.73;;;;;;;;;;5029901;28;20636;-57
2023/08/25 08:08:26;;;;;;;4.83;2.93;;;;;;;;;;5030388;28;20442;-58
2023/08/25 08:10:53;;;;;;;7.40;3.00;;;;;;;;;;5030416;28;20462;-57
2023/08/25 08:13:20;;;;;;;4.80;2.57;;;;;;;;;;5030008;28;20923;-58
2023/08/25 08:15:48;;;;;;;5.57;2.57;;;;;;;;;;5031332;28;20529;-57
2023/08/25 08:18:15;;;;;;;3.53;1.90;;;;;;;;;;5034219;28;20485;-58
2023/08/25 08:20:44;;;;;;;3.90;2.57;;;;;;;;;;5034037;28;20465;-57
2023/08/25 08:23:11;;;;;;;5.27;3.00;;;;;;;;;;5033826;28;20726;-58
2023/08/25 08:25:38;;;;;;;3.60;2.00;;;;;;;;;;5034161;28;20438;-56
2023/08/25 08:28:06;;;;;;;4.23;2.73;;;;;;;;;;5034054;28;20496;-55
2023/08/25 08:30:33;;;;;;;7.90;3.20;;;;;;;;;;5032303;28;20466;-55
2023/08/25 08:33:01;;;;;;;4.90;3.30;;;;;;;;;;5031861;28;20502;-53
2023/08/25 08:35:28;;;;;;;4.73;3.13;;;;;;;;;;5032529;28;20535;-55
2023/08/25 08:37:56;;;;;;;4.90;2.70;;;;;;;;;;5032195;28;20767;-55
2023/08/25 08:40:24;;;;;;;5.60;3.10;;;;;;;;;;5056226;23;21026;-84
2023/08/25 08:42:52;;;;;;;5.30;2.60;;;;;;;;;;5033298;28;20454;-85
2023/08/25 08:45:20;;;;;;;4.50;2.30;;;;;;;;;;5034389;28;20470;-84
2023/08/25 08:47:47;;;;;;;5.30;2.73;;;;;;;;;;5049633;28;20472;-86
2023/08/25 08:50:15;;;;;;;4.63;2.57;;;;;;;;;;5054716;28;20483;-86
2023/08/25 08:52:42;;;;;;;4.97;2.80;;;;;;;;;;5054232;28;20484;-86
2023/08/25 08:55:11;;;;;;;9.23;3.13;;;;;;;;;;5069154;22;20513;-58
2023/08/25 08:57:38;;;;;;;3.10;2.27;;;;;;;;;;5053438;28;20528;-58
2023/08/25 09:00:10;;;;;;;5.83;2.63;;;;;;;;;;5053417;28;20536;-59
2023/08/25 09:02:38;;;;;;;4.27;2.80;;;;;;;;;;5053409;28;20438;-59
2023/08/25 09:05:06;;;;;;;3.77;2.33;;;;;;;;;;5053050;28;20453;-58
2023/08/25 09:07:34;;;;;;;4.93;2.70;;;;;;;;;;5053375;28;20522;-60
2023/08/25 09:10:02;;;;;;;4.67;2.37;;;;;;;;;;5053007;28;20457;-59
2023/08/25 09:12:31;;;;;;;7.10;3.67;;;;;;;;;;5052852;28;20567;-59
2023/08/25 09:14:58;;;;;;;4.43;1.77;;;;;;;;;;5052980;28;20437;-58
2023/08/25 09:17:25;;;;;;;4.00;2.37;;;;;;;;;;5052846;28;20441;-60
2023/08/25 09:19:53;;;;;;;5.07;2.83;;;;;;;;;;5052948;28;20945;-60
2023/08/25 09:22:20;;;;;;;5.03;2.17;;;;;;;;;;5053161;28;20437;-60
2023/08/25 09:24:47;;;;;;;4.00;2.47;;;;;;;;;;5052972;28;20956;-60
2023/08/25 09:27:23;;;;;;;6.30;3.40;;;;;;;;;;5051629;28;20445;-59
2023/08/25 09:29:58;;;;;;;12.60;3.70;;;;;;;;;;5052542;28;21041;-60
2023/08/25 09:32:28;;;;;;;4.20;2.77;;;;;;;;;;5052665;28;20468;-60
2023/08/25 09:34:55;;;;;;;7.10;3.27;;;;;;;;;;5052698;28;20800;-60
2023/08/25 09:37:23;;;;;;;3.70;2.97;;;;;;;;;;5052463;28;20480;-59
2023/08/25 09:39:50;;;;;;;6.63;3.27;;;;;;;;;;5052124;28;20475;-60
2023/08/25 09:42:20;;;;;;;3.60;2.83;;;;;;;;;;5052404;28;20473;-59
2023/08/25 09:44:47;;;;;;;5.00;3.10;;;;;;;;;;5052641;28;20448;-58
2023/08/25 09:47:16;;;;;;;12.57;4.07;;;;;;;;;;5052695;28;20496;-59
2023/08/25 09:49:43;;;;;;;5.07;3.10;;;;;;;;;;5052827;28;20524;-60
2023/08/25 09:52:13;;;;;;;6.43;3.50;;;;;;;;;;5052001;28;20477;-60
2023/08/25 09:54:41;;;;;;;8.13;3.33;;;;;;;;;;5052754;28;20491;-60
2023/08/25 09:57:08;;;;;;;8.50;3.97;;;;;;;;;;5052399;28;20445;-60
2023/08/25 09:59:35;;;;;;;5.27;3.43;;;;;;;;;;5052591;28;20807;-60
2023/08/25 10:02:03;;;;;;;6.87;3.80;;;;;;;;;;5052082;28;20437;-60
2023/08/25 10:04:31;;;;;;;7.77;3.40;;;;;;;;;;5051715;28;20426;-60
2023/08/25 10:07:00;;;;;;;6.93;3.97;;;;;;;;;;5051197;28;20430;-60
2023/08/25 10:09:27;;;;;;;9.30;4.10;;;;;;;;;;5050907;28;20434;-60
2023/08/25 10:11:55;;;;;;;5.20;3.13;;;;;;;;;;5051685;28;20495;-60
2023/08/25 10:14:26;;;;;;;6.90;4.20;;;;;;;;;;5050413;28;20535;-59
2023/08/25 10:16:53;;;;;;;5.50;3.57;;;;;;;;;;5047899;28;20441;-60
2023/08/25 10:19:23;;;;;;;5.93;3.20;;;;;;;;;;5049930;28;20430;-60
2023/08/25 10:21:52;;;;;;;11.87;5.77;;;;;;;;;;5049663;28;20545;-60
2023/08/25 10:24:20;;;;;;;6.20;3.40;;;;;;;;;;5050890;28;20532;-59
2023/08/25 10:26:48;;;;;;;6.43;3.70;;;;;;;;;;5050824;28;20437;-60
2023/08/25 10:29:17;;;;;;;6.10;3.57;;;;;;;;;;5050933;28;20465;-59
2023/08/25 10:31:47;;;;;;;5.13;2.90;;;;;;;;;;5050173;28;20549;-59
2023/08/25 10:34:30;;;;;;;5.40;3.80;;;;;;;;;;5049041;28;21016;-60
2023/08/25 10:37:05;;;;;;;8.10;3.67;;;;;;;;;;5048228;28;20449;-60
2023/08/25 10:39:48;;;;;;;7.93;3.77;;;;;;;;;;5050447;28;20440;-60
2023/08/25 10:42:19;;;;;;;6.43;3.10;;;;;;;;;;5050635;28;20473;-60
2023/08/25 10:44:47;;;;;;;4.33;3.90;;;;;;;;;;5050964;28;20418;-58
2023/08/25 10:47:19;;;;;;;7.13;3.33;;;;;;;;;;5050806;28;21002;-59
2023/08/25 10:49:46;;;;;;;5.80;3.50;;;;;;;;;;5051435;28;20448;-61
2023/08/25 10:52:16;;;;;;;5.07;3.60;;;;;;;;;;5050571;28;20441;-60
2023/08/25 10:54:43;;;;;;;9.10;4.87;;;;;;;;;;5050176;28;20523;-60
2023/08/25 10:57:21;;;;;;;5.20;3.90;;;;;;;;;;5050280;28;20599;-60
2023/08/25 10:59:52;;;;;;;5.43;3.70;;;;;;;;;;5048245;28;20527;-60
2023/08/25 11:02:35;;;;;;;5.23;3.70;;;;;;;;;;5048977;28;20532;-59
2023/08/25 11:05:21;;;;;;;4.30;2.80;;;;;;;;;;5049536;28;20540;-59
2023/08/25 11:07:49;;;;;;;3.90;2.90;;;;;;;;;;5050556;28;20546;-60
2023/08/25 11:10:17;;;;;;;5.37;3.20;;;;;;;;;;5050312;28;20897;-60
2023/08/25 11:12:44;;;;;;;4.40;2.13;;;;;;;;;;5049734;28;20529;-59
2023/08/25 11:15:12;;;;;;;4.23;2.67;;;;;;;;;;5049314;28;20477;-58
2023/08/25 11:17:39;;;;;;;4.60;2.87;;;;;;;;;;5049221;28;20490;-60
2023/08/25 11:20:08;;;;;;;4.00;2.50;;;;;;;;;;5049294;28;20542;-58
2023/08/25 11:22:35;;;;;;;3.80;2.30;;;;;;;;;;5049340;28;20469;-59
2023/08/25 11:25:12;;;;;;;5.20;2.57;;;;;;;;;;5049142;28;20928;-59
2023/08/25 11:27:40;;;;;;;3.63;2.40;;;;;;;;;;5049262;28;20534;-58
2023/08/25 11:30:10;;;;;;;3.10;2.60;;;;;;;;;;5049110;28;20545;-58
2023/08/25 11:32:37;;;;;;;3.50;2.20;;;;;;;;;;5050112;28;20469;-59
2023/08/25 11:35:05;;;;;;;3.20;2.30;;;;;;;;;;5050674;28;20505;-60
2023/08/25 11:37:32;;;;;;;3.50;2.70;;;;;;;;;;5050701;28;20472;-60
2023/08/25 11:40:00;;;;;;;3.90;2.30;;;;;;;;;;5050257;28;20496;-59
2023/08/25 11:42:29;;;;;;;5.10;2.50;;;;;;;;;;5049763;28;20473;-58
2023/08/25 11:44:56;;;;;;;5.97;2.63;;;;;;;;;;5050451;28;20701;-60
2023/08/25 11:47:24;;;;;;;3.80;2.33;;;;;;;;;;5050626;28;20480;-60
2023/08/25 11:49:51;;;;;;;3.80;3.10;;;;;;;;;;5050252;28;20537;-60
2023/08/25 11:52:19;;;;;;;4.40;2.60;;;;;;;;;;5054385;28;20443;-60
2023/08/25 11:54:47;;;;;;;4.30;2.30;;;;;;;;;;5054206;28;20559;-59
2023/08/25 11:57:14;;;;;;;2.83;2.30;;;;;;;;;;5054479;28;20529;-59
2023/08/25 11:59:43;;;;;;;5.70;2.83;;;;;;;;;;5054257;28;20475;-58
2023/08/25 12:02:15;;;;;;;3.93;2.60;;;;;;;;;;5054393;28;20539;-60
2023/08/25 12:04:53;;;;;;;3.60;2.40;;;;;;;;;;5053787;28;20433;-59
2023/08/25 12:07:22;;;;;;;3.83;2.70;;;;;;;;;;5054214;28;20445;-59
2023/08/25 12:09:54;;;;;;;3.90;2.90;;;;;;;;;;5053741;28;20489;-58
2023/08/25 12:12:21;;;;;;;3.80;2.73;;;;;;;;;;5053862;28;20638;-58
2023/08/25 12:14:51;;;;;;;3.73;2.73;;;;;;;;;;5053966;28;20567;-59
2023/08/25 12:17:23;;;;;;;3.40;2.63;;;;;;;;;;5054258;28;20516;-59
2023/08/25 12:19:50;;;;;;;3.50;2.53;;;;;;;;;;5054020;28;20487;-59
2023/08/25 12:22:18;;;;;;;5.10;2.67;;;;;;;;;;5054066;28;20528;-59
2023/08/25 12:24:46;;;;;;;4.57;2.93;;;;;;;;;;5054063;28;20446;-59
2023/08/25 12:27:13;;;;;;;5.20;3.03;;;;;;;;;;5054045;28;20994;-59
2023/08/25 12:29:41;;;;;;;4.60;2.63;;;;;;;;;;5053883;28;20448;-60
2023/08/25 12:32:09;;;;;;;7.97;3.17;;;;;;;;;;5053266;28;20528;-58
2023/08/25 12:34:37;;;;;;;5.90;3.43;;;;;;;;;;5053789;28;20520;-59
2023/08/25 12:37:04;;;;;;;5.30;2.60;;;;;;;;;;5053644;28;20476;-59
2023/08/25 12:39:31;;;;;;;4.87;2.70;;;;;;;;;;5053973;28;20867;-59
2023/08/25 12:41:59;;;;;;;3.83;2.80;;;;;;;;;;5053601;28;20528;-59
2023/08/25 12:44:26;;;;;;;3.80;2.80;;;;;;;;;;5053451;28;20429;-60
2023/08/25 12:46:54;;;;;;;3.70;2.63;;;;;;;;;;5052603;28;20567;-59
2023/08/25 12:49:22;;;;;;;6.07;2.83;;;;;;;;;;5052237;28;20467;-60
2023/08/25 12:51:49;;;;;;;4.10;2.80;;;;;;;;;;5052396;28;20496;-58
2023/08/25 12:54:18;;;;;;;3.80;3.20;;;;;;;;;;5051847;28;20473;-58
2023/08/25 12:56:46;;;;;;;4.77;2.77;;;;;;;;;;5051130;28;20491;-59
2023/08/25 12:59:13;;;;;;;5.73;2.40;;;;;;;;;;5050292;28;20520;-59
2023/08/25 13:01:40;;;;;;;4.27;2.83;;;;;;;;;;5051477;28;20872;-58
2023/08/25 13:04:07;;;;;;;5.87;3.27;;;;;;;;;;5051249;28;20472;-58
2023/08/25 13:06:36;;;;;;;5.33;2.90;;;;;;;;;;5052361;28;20491;-59
2023/08/25 13:09:04;;;;;;;4.20;3.20;;;;;;;;;;5051449;28;20444;-59
2023/08/25 13:11:31;;;;;;;4.20;3.00;;;;;;;;;;5051811;28;20469;-58
2023/08/25 13:13:59;;;;;;;4.77;3.23;;;;;;;;;;5052078;28;20513;-59
2023/08/25 13:16:26;;;;;;;4.47;3.13;;;;;;;;;;5051941;28;20465;-57
2023/08/25 13:18:55;;;;;;;3.93;3.03;;;;;;;;;;5052104;28;20894;-59
2023/08/25 13:21:22;;;;;;;4.57;2.77;;;;;;;;;;5051952;28;20511;-59
2023/08/25 13:23:50;;;;;;;4.20;3.07;;;;;;;;;;5052006;28;20533;-59
2023/08/25 13:26:18;;;;;;;4.93;3.50;;;;;;;;;;5051900;28;20442;-59
2023/08/25 13:28:45;;;;;;;3.67;2.73;;;;;;;;;;5051837;28;20542;-58
2023/08/25 13:31:12;;;;;;;4.00;3.10;;;;;;;;;;5051491;28;20536;-59
2023/08/25 13:33:40;;;;;;;6.77;3.33;;;;;;;;;;5051089;28;20472;-59
2023/08/25 13:36:07;;;;;;;4.77;2.67;;;;;;;;;;5051598;28;20512;-59
2023/08/25 13:38:34;;;;;;;4.30;3.43;;;;;;;;;;5051502;28;20528;-60
2023/08/25 13:41:03;;;;;;;4.77;3.33;;;;;;;;;;5051564;28;20453;-60
2023/08/25 13:43:30;;;;;;;5.90;3.60;;;;;;;;;;5051676;28;20525;-58
2023/08/25 13:45:57;;;;;;;6.13;3.60;;;;;;;;;;5051665;28;20469;-60
2023/08/25 13:48:25;;;;;;;4.13;3.30;;;;;;;;;;5051524;28;20521;-59
2023/08/25 13:50:52;;;;;;;5.87;3.07;;;;;;;;;;5051201;28;20573;-58
2023/08/25 13:53:19;;;;;;;4.23;3.50;;;;;;;;;;5051245;28;20531;-59
2023/08/25 13:55:46;;;;;;;7.87;3.80;;;;;;;;;;5013340;28;1107804;-59
2023/08/25 13:58:15;;;;;;;3.83;3.07;;;;;;;;;;5052236;28;20677;-58
2023/08/25 14:00:42;;;;;;;9.57;4.10;;;;;;;;;;5052481;28;20540;-58
2023/08/25 14:03:09;;;;;;;4.80;3.37;;;;;;;;;;5051498;28;20441;-58
2023/08/25 14:05:38;;;;;;;7.00;3.83;;;;;;;;;;5052117;28;20469;-59
2023/08/25 14:08:06;;;;;;;6.37;3.80;;;;;;;;;;5051816;28;20446;-58
2023/08/25 14:10:33;;;;;;;6.63;4.00;;;;;;;;;;5052155;28;20457;-59
2023/08/25 14:13:00;;;;;;;4.70;3.87;;;;;;;;;;5049346;28;20529;-59
2023/08/25 14:15:29;;;;;;;4.73;3.40;;;;;;;;;;5043887;28;20582;-59
2023/08/25 14:17:56;;;;;;;7.40;4.60;;;;;;;;;;5048659;28;20529;-59
2023/08/25 14:20:24;;;;;;;6.80;4.40;;;;;;;;;;5050120;28;20453;-59
2023/08/25 14:22:51;;;;;;;7.53;4.40;;;;;;;;;;5045431;28;20952;-58
2023/08/25 14:25:18;;;;;;;5.60;4.47;;;;;;;;;;5055557;28;20460;-59
2023/08/25 14:27:45;;;;;;;13.80;5.10;;;;;;;;;;5049533;28;20525;-59
2023/08/25 14:30:13;;;;;;;5.57;4.70;;;;;;;;;;5044905;28;20513;-59
2023/08/25 14:32:41;;;;;;;6.00;4.40;;;;;;;;;;5042232;28;20537;-59
2023/08/25 14:35:09;;;;;;;14.47;7.30;;;;;;;;;;5048464;28;21135;-60
2023/08/25 14:37:36;;;;;;;9.80;5.67;;;;;;;;;;5048246;28;20438;-59
2023/08/25 14:40:04;;;;;;;10.20;4.83;;;;;;;;;;5064669;23;20449;-55
2023/08/25 14:42:31;;;;;;;6.83;4.80;;;;;;;;;;5029756;28;20481;-57
2023/08/25 14:44:59;;;;;;;6.57;5.13;;;;;;;;;;5027693;28;20474;-55
2023/08/25 14:47:26;;;;;;;6.80;5.13;;;;;;;;;;5030792;28;20443;-55